Albemarle, North Carolina
Current Conditions -  °F | °C
As of 6:55 PM on Friday 21 Nov 2014 (Local Time) from KVUJ Reporting Station
Clear Clear  
Wind Chill: 33°   Ceiling: Unl
Heat Index: 33°   Visibility: 10mi
Dew Point: 24°   Wind: 0mph
Humidity: 67%   Direction: NA
Pressure: 30.51"   Gusts: NA
Location:  35.35°N, 80.19°W
Report Text: KVUJ 212355Z AUTO 00000KT 10SM CLR 01/M05 A3051 RMK AO2 T00071047 10118 20007
Loading
Personal Weather Stations






























Interactive Weather Map New forecast layout! Learn more

10-Day Weather Forecast

Advertisements
Track Severe Weather on mobile